Flight Track Log - Related Links

Times and Time Zones

All times are in EDT time to prevent confusion due to time zone crossing. See the SAS13 flight status page for this flight to view local times or setup timezone preferences in your user account.

Time Position Orientation Groundspeed Altitude Reporting Facility
EDT Latitude Longitude Course Direction KTS MPH feet Rate Location/Type
Wed 11:11:00 AM 65.2257 21.8451 200° South  Level Estimated
Wed 11:12:00 AM 65.1196 21.7542 200° South  Level Estimated
Wed 11:13:00 AM 65.0134 21.6641 200° South  Level Estimated
Wed 11:14:00 AM 64.9072 21.5747 200° South  Level Estimated
Wed 11:15:00 AM 64.8009 21.4860 200° South  Level Estimated
Wed 11:16:00 AM 64.6946 21.3980 199° South  Level Estimated
Wed 11:17:00 AM 64.5882 21.3107 199° South  Level Estimated
Wed 11:18:00 AM 64.4817 21.2241 199° South  Level Estimated
Wed 11:19:00 AM 64.3752 21.1381 199° South  Level Estimated
Wed 11:20:00 AM 64.2687 21.0529 199° South  Level Estimated
Wed 11:21:00 AM 64.1621 20.9682 199° South  Level Estimated
Wed 11:22:00 AM 64.0555 20.8842 199° South  Level Estimated
Wed 11:23:00 AM 63.9488 20.8009 199° South  Level Estimated
Wed 11:24:00 AM 63.8420 20.7182 199° South  Level Estimated
Wed 11:25:00 AM 63.7353 20.6361 199° South  Level Estimated
Wed 11:26:00 AM 63.6284 20.5546 199° South  Level Estimated
Wed 11:27:00 AM 63.5216 20.4737 199° South  Level Estimated
Wed 11:28:00 AM 63.4146 20.3935 199° South  Level Estimated
Wed 11:29:00 AM 63.3077 20.3138 199° South  Level Estimated
Wed 11:30:00 AM 63.2007 20.2348 198° South  Level Estimated
Wed 11:31:00 AM 63.0936 20.1563 198° South  Level Estimated
Wed 11:32:00 AM 62.9865 20.0784 198° South  Level Estimated
Wed 11:33:00 AM 62.8794 20.0010 198° South  Level Estimated
Wed 11:34:00 AM 62.7722 19.9242 198° South  Level Estimated
Wed 11:35:00 AM 62.6650 19.8480 198° South  Level Estimated
Wed 11:36:00 AM 62.5577 19.7723 198° South  Level Estimated
Wed 11:37:00 AM 62.4504 19.6972 198° South  Level Estimated
Wed 11:38:00 AM 62.3431 19.6226 198° South  Level Estimated
Wed 11:39:00 AM 62.2357 19.5486 198° South  Level Estimated
Wed 11:40:00 AM 62.1283 19.4750 198° South  Level Estimated
Wed 11:41:00 AM 62.0208 19.4020 198° South  Level Estimated
Wed 11:42:00 AM 61.9133 19.3295 198° South  Level Estimated
Wed 11:43:00 AM 61.8058 19.2575 198° South  Level Estimated
Wed 11:44:00 AM 61.6982 19.1860 197° South  Level Estimated
Wed 11:45:00 AM 61.5906 19.1150 197° South  Level Estimated
Wed 11:46:00 AM 61.4830 19.0445 197° South  Level Estimated
Wed 11:47:00 AM 61.3753 18.9745 197° South  Level Estimated
Wed 11:48:00 AM 61.2676 18.9050 197° South  Level Estimated
Wed 11:49:00 AM 61.1598 18.8359 197° South  Level Estimated
Wed 11:50:00 AM 61.0520 18.7673 197° South  Level Estimated
Wed 11:51:00 AM 60.9442 18.6992 197° South  Level Estimated
Wed 11:52:00 AM 60.8363 18.6315 197° South  Level Estimated
Wed 11:53:00 AM 60.7285 18.5643 197° South  Level Estimated
Wed 11:54:00 AM 60.6205 18.4975 197° South  Level Estimated
Wed 11:55:00 AM 60.5126 18.4312 197° South  Level Estimated
Wed 11:56:00 AM 60.4046 18.3654 197° South  Level Estimated
Wed 11:57:00 AM 60.2966 18.2999 197° South  Level Estimated
Wed 11:58:00 AM 60.1885 18.2349 197° South  Level Estimated
Wed 11:59:00 AM 60.0804 18.1703 197° South  Level Estimated
Wed 12:00:00 PM 59.9723 18.1062 197° South  Level Estimated
Wed 12:01:00 PM 59.8641 18.0424 196° South  Level Estimated
Wed 12:02:00 PM 59.7560 17.9791 196° South  Level Estimated
Wed 12:03:00 PM 59.6519 17.9186 196° South  Level Estimated
Wed 12:04:00 PM 59.6519 17.9186 North  Level Estimated
Wed 12:05:00 PM 59.6519 17.9186 North  Level Estimated
Wed 12:06:00 PM 59.6519 17.9186 North  Level Estimated
Wed 12:07:00 PM 59.6519 17.9186 North  Level Estimated
Wed 12:08:00 PM 59.6519 17.9186 North  Level Estimated
Wed 12:09:00 PM 59.6519 17.9186 North  Level Estimated
Wed 12:10:00 PM 59.6519 17.9186 North  Level Estimated
Wed 12:11:00 PM 59.6519 17.9186 North  Level Estimated
Wed 12:12:00 PM 59.6519 17.9186 North  Level Estimated
Wed 12:13:00 PM 59.6519 17.9186 North  Level Estimated
Wed 12:14:00 PM 59.6519 17.9186 North  Level Estimated
Wed 12:15:00 PM 59.6519 17.9186 North  Level Estimated
Wed 12:16:00 PM 59.6519 17.9186 North  Level Estimated
Wed 12:17:00 PM 59.6519 17.9186 North  Level Estimated

Login

Don't have an account? Register now (free) for customized features, flight alerts, and more!